createdAt,value
2018-04-01T00:00:40.257Z,16.00
2018-04-01T00:03:08.001Z,13.50
2018-04-01T00:05:36.513Z,15.27
2018-04-01T00:08:03.511Z,17.73
2018-04-01T00:10:30.491Z,18.80
2018-04-01T00:12:58.238Z,15.63
2018-04-01T00:15:25.248Z,16.20
2018-04-01T00:17:52.213Z,19.53
2018-04-01T00:20:19.207Z,24.00
2018-04-01T00:22:46.959Z,19.77
2018-04-01T00:25:14.688Z,18.27
2018-04-01T00:27:41.669Z,17.00
2018-04-01T00:30:09.407Z,21.43
2018-04-01T00:32:36.441Z,23.27
2018-04-01T00:35:04.179Z,21.53
2018-04-01T00:37:31.191Z,18.60
2018-04-01T00:39:58.959Z,22.30
2018-04-01T00:42:25.931Z,17.70
2018-04-01T00:44:52.923Z,22.90
2018-04-01T00:47:19.924Z,20.93
2018-04-01T00:49:46.904Z,29.07
2018-04-01T00:52:13.875Z,27.53
2018-04-01T00:54:40.893Z,28.10
2018-04-01T00:57:07.868Z,26.90
2018-04-01T00:59:34.852Z,20.97
2018-04-01T01:02:02.607Z,31.50
2018-04-01T01:04:32.408Z,29.87
2018-04-01T01:06:59.383Z,32.47
2018-04-01T01:09:26.370Z,23.23
2018-04-01T01:11:53.343Z,24.90
2018-04-01T01:14:20.334Z,26.90
2018-04-01T01:16:47.298Z,26.60
2018-04-01T01:19:14.274Z,27.00
2018-04-01T01:21:41.288Z,30.63
2018-04-01T01:24:08.293Z,31.10
2018-04-01T01:26:35.280Z,32.67
2018-04-01T01:29:02.241Z,29.80
2018-04-01T01:31:29.227Z,30.73
2018-04-01T01:33:57.002Z,29.67
2018-04-01T01:36:24.752Z,34.57
2018-04-01T01:38:52.555Z,25.70
2018-04-01T01:41:19.560Z,30.73
2018-04-01T01:43:46.530Z,30.50
2018-04-01T01:46:14.288Z,36.03
2018-04-01T01:48:42.042Z,30.80
2018-04-01T01:51:09.031Z,32.33
2018-04-01T01:53:35.985Z,33.10
2018-04-01T01:56:02.994Z,38.90
2018-04-01T01:58:29.945Z,38.43
2018-04-01T02:00:57.702Z,38.93
2018-04-01T02:03:25.445Z,38.17
2018-04-01T02:05:52.448Z,42.27
2018-04-01T02:08:19.430Z,41.40
2018-04-01T02:10:46.414Z,40.87
2018-04-01T02:13:14.236Z,53.07
2018-04-01T02:15:41.191Z,39.57
2018-04-01T02:18:08.171Z,42.07
2018-04-01T02:23:25.181Z,49.30
2018-04-01T02:26:05.477Z,44.47
2018-04-01T02:28:32.467Z,41.07
2018-04-01T02:30:59.444Z,37.20
2018-04-01T02:33:26.424Z,45.27
2018-04-01T02:35:53.411Z,38.97
2018-04-01T02:38:21.439Z,37.07
2018-04-01T02:40:48.411Z,32.73
2018-04-01T02:43:15.389Z,33.50
2018-04-01T02:45:42.366Z,30.27
2018-04-01T02:48:10.111Z,28.97
2018-04-01T02:50:37.089Z,33.03
2018-04-01T02:53:04.065Z,26.20
2018-04-01T02:55:31.068Z,28.33
2018-04-01T02:57:58.054Z,30.57
2018-04-01T03:00:25.105Z,36.33
2018-04-01T03:02:52.087Z,29.90
2018-04-01T03:05:19.889Z,33.23
2018-04-01T03:07:46.867Z,33.30
2018-04-01T03:10:13.845Z,30.50
2018-04-01T03:12:40.953Z,32.63
2018-04-01T03:15:07.945Z,31.20
2018-04-01T03:17:34.964Z,36.03
2018-04-01T03:20:01.930Z,36.63
2018-04-01T03:22:28.928Z,32.47
2018-04-01T03:24:55.939Z,36.70
2018-04-01T03:27:22.935Z,33.40
2018-04-01T03:29:49.979Z,35.63
2018-04-01T03:32:16.977Z,39.53
2018-04-01T03:34:43.999Z,37.73
2018-04-01T03:37:11.003Z,46.50
2018-04-01T03:39:38.074Z,41.17
2018-04-01T03:42:05.047Z,38.80
2018-04-01T03:44:32.060Z,43.83
2018-04-01T03:46:59.066Z,46.03
2018-04-01T03:49:26.031Z,44.10
2018-04-01T03:51:53.787Z,46.77
2018-04-01T03:54:21.545Z,43.67
2018-04-01T03:56:48.576Z,41.00
2018-04-01T03:59:15.551Z,41.77
2018-04-01T04:01:43.297Z,38.07
2018-04-01T04:04:10.307Z,51.80
2018-04-01T04:06:37.288Z,35.57
2018-04-01T04:09:04.294Z,40.90
2018-04-01T04:11:31.326Z,41.73
2018-04-01T04:13:58.350Z,46.70
2018-04-01T04:16:26.218Z,29.20
2018-04-01T04:18:53.976Z,33.37
2018-04-01T04:21:20.959Z,39.60
2018-04-01T04:23:47.938Z,32.60
2018-04-01T04:26:14.917Z,31.70
2018-04-01T04:28:41.886Z,40.27
2018-04-01T04:31:08.888Z,36.80
2018-04-01T04:33:35.874Z,40.03
2018-04-01T04:36:03.622Z,42.63
2018-04-01T04:38:30.596Z,39.77
2018-04-01T04:40:58.355Z,37.53
2018-04-01T04:43:26.131Z,41.67
2018-04-01T04:45:53.124Z,45.50
2018-04-01T04:48:20.099Z,40.50
2018-04-01T04:50:47.299Z,34.17
2018-04-01T04:53:14.298Z,42.30
2018-04-01T04:55:41.295Z,35.57
2018-04-01T04:58:08.282Z,41.43
2018-04-01T05:00:35.301Z,45.50
2018-04-01T05:03:02.285Z,43.33
2018-04-01T05:05:29.254Z,42.70
2018-04-01T05:07:56.248Z,45.77
2018-04-01T05:10:23.236Z,47.67
2018-04-01T05:12:50.983Z,50.67
2018-04-01T05:15:18.041Z,43.83
2018-04-01T05:17:45.880Z,52.80
2018-04-01T05:20:12.835Z,53.07
2018-04-01T05:22:39.826Z,52.30
2018-04-01T05:25:06.807Z,56.93
2018-04-01T05:27:33.784Z,48.67
2018-04-01T05:30:00.758Z,58.30
2018-04-01T05:32:28.517Z,53.63
2018-04-01T05:34:56.254Z,61.73
2018-04-01T05:37:23.238Z,50.10
2018-04-01T05:39:50.235Z,63.00
2018-04-01T05:42:17.318Z,61.27
2018-04-01T05:44:45.071Z,61.30
2018-04-01T05:47:12.038Z,63.57
2018-04-01T05:49:39.802Z,42.87
2018-04-01T05:52:07.554Z,46.57
2018-04-01T05:54:34.563Z,45.63
2018-04-01T05:57:01.541Z,49.70
2018-04-01T05:59:28.542Z,51.90
2018-04-01T06:01:55.545Z,61.03
2018-04-01T06:04:22.534Z,71.70
2018-04-01T06:06:49.564Z,73.33
2018-04-01T06:09:16.607Z,54.57
2018-04-01T06:11:44.356Z,46.97
2018-04-01T06:14:12.140Z,33.70
2018-04-01T06:16:39.182Z,22.83
2018-04-01T06:19:06.938Z,24.90
2018-04-01T06:21:34.679Z,19.40
2018-04-01T06:24:01.652Z,17.00
2018-04-01T06:26:29.409Z,23.00
2018-04-01T06:28:56.421Z,16.10
2018-04-01T06:31:23.403Z,16.17
2018-04-01T06:33:50.491Z,15.87
2018-04-01T06:36:17.484Z,13.40
2018-04-01T06:38:44.483Z,12.90
2018-04-01T06:41:12.237Z,15.50
2018-04-01T06:43:39.307Z,21.50
2018-04-01T06:46:06.294Z,25.10
2018-04-01T06:48:33.337Z,18.93
2018-04-01T06:51:00.306Z,19.37
2018-04-01T06:53:28.087Z,23.63
2018-04-01T06:55:55.822Z,19.40
2018-04-01T06:58:22.810Z,22.17
2018-04-01T07:00:49.792Z,18.27
2018-04-01T07:03:16.772Z,21.40
2018-04-01T07:05:43.820Z,21.60
2018-04-01T07:08:10.834Z,27.13
2018-04-01T07:10:38.618Z,23.60
2018-04-01T07:13:05.644Z,37.20
2018-04-01T07:15:32.671Z,29.13
2018-04-01T07:17:59.790Z,30.40
2018-04-01T07:20:27.537Z,36.47
2018-04-01T07:22:54.555Z,36.47
2018-04-01T07:25:21.556Z,29.90
2018-04-01T07:27:49.300Z,27.63
2018-04-01T07:30:16.272Z,29.70
2018-04-01T07:32:44.014Z,36.17
2018-04-01T07:35:11.779Z,42.93
2018-04-01T07:37:38.755Z,22.30
2018-04-01T07:40:05.810Z,31.17
2018-04-01T07:42:32.796Z,34.37
2018-04-01T07:45:00.547Z,25.67
2018-04-01T07:47:28.361Z,30.27
2018-04-01T07:49:56.470Z,34.33
2018-04-01T07:52:23.429Z,37.00
2018-04-01T07:54:50.409Z,36.80
2018-04-01T07:57:17.408Z,37.73
2018-04-01T07:59:44.402Z,37.20
2018-04-01T08:02:11.400Z,43.57
2018-04-01T08:04:38.394Z,41.80
2018-04-01T08:07:05.367Z,49.23
2018-04-01T08:09:33.885Z,45.97
2018-04-01T08:12:00.905Z,41.40
2018-04-01T08:14:27.926Z,47.13
2018-04-01T08:16:55.133Z,43.57
2018-04-01T08:19:22.939Z,47.93
2018-04-01T08:21:49.933Z,46.27
2018-04-01T08:24:16.899Z,54.00
2018-04-01T08:26:43.897Z,45.13
2018-04-01T08:29:11.668Z,41.37
2018-04-01T08:31:39.412Z,41.23
2018-04-01T08:34:06.418Z,44.40
2018-04-01T08:36:33.419Z,45.80
2018-04-01T08:39:01.173Z,36.23
2018-04-01T08:41:28.173Z,37.20
2018-04-01T08:43:55.219Z,47.23
2018-04-01T08:46:22.234Z,38.40
2018-04-01T08:48:49.201Z,34.97
2018-04-01T08:51:16.261Z,36.20
2018-04-01T08:53:43.393Z,42.00
2018-04-01T08:56:10.775Z,44.90
2018-04-01T08:58:37.785Z,40.23
2018-04-01T09:01:05.564Z,55.97
2018-04-01T09:03:32.584Z,48.90
2018-04-01T09:05:59.583Z,53.77
2018-04-01T09:08:26.586Z,41.13
2018-04-01T09:10:54.368Z,40.80
2018-04-01T09:13:21.366Z,42.53
2018-04-01T09:15:48.451Z,51.50
2018-04-01T09:18:16.212Z,43.67
2018-04-01T09:20:43.194Z,40.27
2018-04-01T09:23:10.398Z,35.00
2018-04-01T09:25:37.517Z,36.23
2018-04-01T09:28:04.512Z,35.73
2018-04-01T09:30:32.337Z,27.87
2018-04-01T09:32:59.369Z,31.77
2018-04-01T09:35:26.862Z,33.47
2018-04-01T09:37:53.826Z,34.67
2018-04-01T09:40:21.800Z,38.77
2018-04-01T09:42:49.285Z,36.23
2018-04-01T09:45:16.284Z,36.33
2018-04-01T09:47:43.282Z,36.37
2018-04-01T09:50:10.271Z,44.77
2018-04-01T09:52:37.233Z,34.40
2018-04-01T09:55:04.247Z,40.00
2018-04-01T09:57:31.217Z,28.27
2018-04-01T09:59:58.194Z,28.53
2018-04-01T10:02:26.482Z,33.87
2018-04-01T10:05:06.695Z,32.10
2018-04-01T10:07:34.270Z,27.93
2018-04-01T10:10:01.972Z,25.70
2018-04-01T10:12:29.434Z,27.57
2018-04-01T10:14:56.927Z,23.97
2018-04-01T10:17:24.503Z,27.77
2018-04-01T10:19:52.811Z,24.90
2018-04-01T10:22:21.079Z,24.60
2018-04-01T10:24:49.346Z,25.60
2018-04-01T10:27:16.936Z,22.27
2018-04-01T10:29:44.453Z,26.73
2018-04-01T10:32:12.053Z,20.17
2018-04-01T10:34:39.544Z,21.20
2018-04-01T10:37:07.029Z,23.57
2018-04-01T10:39:34.599Z,22.37
2018-04-01T10:42:02.107Z,23.40
2018-04-01T10:44:30.671Z,25.10
2018-04-01T10:46:58.972Z,25.43
2018-04-01T10:49:27.928Z,20.47
2018-04-01T10:51:55.547Z,21.77
2018-04-01T10:54:22.539Z,18.50
2018-04-01T10:56:50.289Z,22.77
2018-04-01T10:59:18.052Z,20.30
2018-04-01T11:01:45.064Z,23.07
2018-04-01T11:04:12.048Z,25.27
2018-04-01T11:06:39.019Z,26.00
2018-04-01T11:09:06.791Z,24.10
2018-04-01T11:11:33.805Z,25.50
2018-04-01T11:14:00.790Z,25.07
2018-04-01T11:16:27.774Z,26.13
2018-04-01T11:18:54.839Z,29.50
2018-04-01T11:21:21.824Z,24.63
2018-04-01T11:23:49.851Z,25.90
2018-04-01T11:26:16.840Z,26.93
2018-04-01T11:28:44.615Z,27.70
2018-04-01T11:31:11.641Z,28.23
2018-04-01T11:33:38.612Z,28.10
2018-04-01T11:36:05.589Z,29.60
2018-04-01T11:38:32.594Z,36.30
2018-04-01T11:41:00.338Z,44.30
2018-04-01T11:43:27.358Z,73.17
2018-04-01T11:45:54.334Z,62.30
2018-04-01T11:48:21.375Z,62.13
2018-04-01T11:50:48.371Z,43.90
2018-04-01T11:53:16.031Z,45.43
2018-04-01T11:55:43.032Z,38.47
2018-04-01T11:58:09.998Z,37.60
2018-04-01T12:00:37.762Z,40.00
2018-04-01T12:03:05.500Z,42.87
2018-04-01T12:05:32.486Z,41.40
2018-04-01T12:08:00.247Z,40.93
2018-04-01T12:10:27.983Z,37.77
2018-04-01T12:12:54.982Z,45.90
2018-04-01T12:15:22.087Z,36.60
2018-04-01T12:17:49.859Z,40.43
2018-04-01T12:20:16.899Z,45.13
2018-04-01T12:22:43.911Z,43.90
2018-04-01T12:25:11.695Z,50.33
2018-04-01T12:27:38.695Z,46.67
2018-04-01T12:30:05.664Z,46.47
2018-04-01T12:32:32.943Z,51.50
2018-04-01T12:34:59.916Z,51.77
2018-04-01T12:37:27.011Z,48.80
2018-04-01T12:39:53.983Z,50.40
2018-04-01T12:42:20.958Z,50.40
2018-04-01T12:44:47.934Z,48.53
2018-04-01T12:47:14.924Z,52.30
2018-04-01T12:49:41.935Z,53.27
2018-04-01T12:52:08.937Z,45.93
2018-04-01T12:54:35.935Z,44.93
2018-04-01T12:57:02.926Z,51.53
2018-04-01T12:59:29.936Z,51.13
2018-04-01T13:01:56.935Z,56.00
2018-04-01T13:04:24.066Z,68.53
2018-04-01T13:06:51.230Z,60.70
2018-04-01T13:09:18.232Z,59.10
2018-04-01T13:11:45.324Z,60.80
2018-04-01T13:14:12.463Z,55.70
2018-04-01T13:16:39.440Z,50.20
2018-04-01T13:19:07.205Z,58.37
2018-04-01T13:21:34.950Z,57.53
2018-04-01T13:24:01.955Z,60.00
2018-04-01T13:26:28.954Z,62.40
2018-04-01T13:28:56.007Z,63.53
2018-04-01T13:31:23.768Z,66.87
2018-04-01T13:33:50.808Z,61.13
2018-04-01T13:36:18.804Z,57.93
2018-04-01T13:38:46.643Z,63.80
2018-04-01T13:41:13.712Z,72.90
2018-04-01T13:43:41.490Z,71.47
2018-04-01T13:46:09.312Z,74.47
2018-04-01T13:48:36.289Z,77.83
2018-04-01T13:51:04.040Z,76.87
2018-04-01T13:53:31.025Z,82.73
2018-04-01T13:55:58.028Z,90.63
2018-04-01T13:58:25.033Z,78.17
2018-04-01T14:00:52.030Z,69.87
2018-04-01T14:03:19.022Z,72.77
2018-04-01T14:05:46.610Z,75.67
2018-04-01T14:08:13.609Z,74.80
2018-04-01T14:10:41.369Z,71.37
2018-04-01T14:13:09.137Z,79.80
2018-04-01T14:15:36.919Z,66.37
2018-04-01T14:18:03.905Z,82.53
2018-04-01T14:20:30.915Z,67.37
2018-04-01T14:22:57.890Z,69.20
2018-04-01T14:25:24.916Z,66.97
2018-04-01T14:27:51.904Z,64.97
2018-04-01T14:30:18.942Z,64.40
2018-04-01T14:32:45.898Z,63.87
2018-04-01T14:35:12.906Z,51.53
2018-04-01T14:37:39.885Z,44.17
2018-04-01T14:40:06.868Z,41.90
2018-04-01T14:42:33.865Z,35.43
2018-04-01T14:45:00.863Z,34.57
2018-04-01T14:47:27.895Z,32.43
2018-04-01T14:49:54.871Z,34.33
2018-04-01T14:52:22.632Z,36.27
2018-04-01T14:54:50.386Z,37.70
2018-04-01T14:57:17.405Z,31.57
2018-04-01T14:59:44.378Z,37.70
2018-04-01T15:02:12.158Z,34.47
2018-04-01T15:04:39.894Z,41.03
2018-04-01T15:07:06.981Z,34.30
2018-04-01T15:09:33.984Z,44.57
2018-04-01T15:12:00.955Z,36.60
2018-04-01T15:14:28.703Z,37.23
2018-04-01T15:16:55.700Z,41.77
2018-04-01T15:19:22.685Z,32.20
2018-04-01T15:21:49.684Z,46.73
2018-04-01T15:24:18.081Z,37.67
2018-04-01T15:26:45.463Z,33.63
2018-04-01T15:29:12.587Z,39.93
2018-04-01T15:31:39.586Z,35.13
2018-04-01T15:34:07.399Z,41.97
2018-04-01T15:36:35.249Z,46.60
2018-04-01T15:39:02.267Z,41.77
2018-04-01T15:41:29.291Z,49.57
2018-04-01T15:43:56.259Z,58.23
2018-04-01T15:46:23.247Z,53.80
2018-04-01T15:48:50.220Z,52.93
2018-04-01T15:51:17.222Z,66.00
2018-04-01T15:53:44.979Z,52.00
2018-04-01T15:56:13.275Z,67.77
2018-04-01T15:58:40.303Z,65.43
2018-04-01T16:01:07.547Z,82.37
2018-04-01T16:03:34.658Z,100.90
2018-04-01T16:06:01.808Z,90.97
2018-04-01T16:08:29.298Z,85.13
2018-04-01T16:10:56.284Z,106.90
2018-04-01T16:13:23.306Z,100.67
2018-04-01T16:15:51.094Z,104.07
2018-04-01T16:18:18.855Z,107.10
2018-04-01T16:20:45.863Z,120.60
2018-04-01T16:23:12.847Z,120.87
2018-04-01T16:25:39.843Z,130.70
2018-04-01T16:28:06.850Z,134.77
2018-04-01T16:30:33.848Z,144.50
2018-04-01T16:33:01.221Z,148.53
2018-04-01T16:35:28.675Z,150.80
2018-04-01T16:37:55.700Z,138.83
2018-04-01T16:40:23.651Z,145.83
2018-04-01T16:42:50.903Z,163.93
2018-04-01T16:45:17.998Z,149.53
2018-04-01T16:47:45.349Z,168.37
2018-04-01T16:50:12.507Z,187.10
2018-04-01T16:52:40.670Z,204.83
2018-04-01T16:55:07.773Z,190.80
2018-04-01T16:57:34.769Z,188.77
2018-04-01T17:00:01.753Z,175.90
2018-04-01T17:02:29.870Z,198.40
2018-04-01T17:04:56.842Z,196.00
2018-04-01T17:07:23.853Z,223.00
2018-04-01T17:09:51.287Z,191.97
2018-04-01T17:12:18.306Z,236.00
2018-04-01T17:14:46.764Z,251.73
2018-04-01T17:17:13.860Z,213.70
2018-04-01T17:19:40.847Z,236.43
2018-04-01T17:22:07.919Z,238.30
2018-04-01T17:24:34.907Z,258.43
2018-04-01T17:27:02.068Z,225.53
2018-04-01T17:29:29.153Z,238.00
2018-04-01T17:31:56.922Z,228.87
2018-04-01T17:34:27.181Z,248.27
2018-04-01T17:36:54.259Z,218.90
2018-04-01T17:39:21.243Z,245.60
2018-04-01T17:41:48.270Z,243.03
2018-04-01T17:44:15.289Z,238.53
2018-04-01T17:46:42.268Z,249.70
2018-04-01T17:49:09.284Z,235.63
2018-04-01T17:51:36.258Z,255.53
2018-04-01T17:54:03.234Z,245.30
2018-04-01T17:56:30.234Z,225.37
2018-04-01T17:58:57.647Z,266.00
2018-04-01T18:01:24.661Z,235.80
2018-04-01T18:03:51.670Z,253.10
2018-04-01T18:06:18.661Z,241.47
2018-04-01T18:08:45.666Z,234.13
2018-04-01T18:11:12.649Z,252.67
2018-04-01T18:13:39.747Z,257.77
2018-04-01T18:16:07.666Z,258.93
2018-04-01T18:18:34.731Z,238.77
2018-04-01T18:21:01.773Z,247.53
2018-04-01T18:23:28.778Z,233.00
2018-04-01T18:25:55.776Z,262.57
2018-04-01T18:28:23.181Z,268.93
2018-04-01T18:30:50.187Z,238.03
2018-04-01T18:33:17.231Z,258.03
2018-04-01T18:35:44.194Z,235.27
2018-04-01T18:38:12.012Z,259.97
2018-04-01T18:40:39.094Z,244.93
2018-04-01T18:43:06.087Z,243.27
2018-04-01T18:45:33.065Z,238.23
2018-04-01T18:48:00.086Z,248.63
2018-04-01T18:50:27.071Z,231.07
2018-04-01T18:52:54.059Z,200.83
2018-04-01T18:55:21.855Z,179.33
2018-04-01T18:57:48.889Z,203.13
2018-04-01T19:00:15.905Z,194.77
2018-04-01T19:02:43.663Z,182.87
2018-04-01T19:05:11.681Z,153.63
2018-04-01T19:07:39.620Z,148.77
2018-04-01T19:10:07.366Z,155.37
2018-04-01T19:12:34.351Z,137.33
2018-04-01T19:15:01.403Z,153.57
2018-04-01T19:17:28.950Z,162.43
2018-04-01T19:19:56.496Z,137.17
2018-04-01T19:22:24.379Z,139.13
2018-04-01T19:24:51.894Z,155.60
2018-04-01T19:27:19.392Z,152.97
2018-04-01T19:29:47.647Z,140.77
2018-04-01T19:32:15.145Z,136.00
2018-04-01T19:34:42.664Z,135.30
2018-04-01T19:37:10.165Z,147.10
2018-04-01T19:39:37.683Z,146.90
2018-04-01T19:42:05.159Z,158.87
2018-04-01T19:44:32.715Z,136.30
2018-04-01T19:47:01.508Z,150.80
2018-04-01T19:49:29.762Z,128.73
2018-04-01T19:51:57.246Z,140.53
2018-04-01T19:54:26.259Z,136.63
2018-04-01T19:56:54.573Z,136.03
2018-04-01T19:59:23.001Z,141.23
2018-04-01T20:01:51.290Z,153.60
2018-04-01T20:06:50.561Z,147.83
2018-04-01T20:09:18.044Z,175.50
2018-04-01T20:11:45.538Z,152.33
2018-04-01T20:14:13.007Z,158.90
2018-04-01T20:16:40.491Z,143.63
2018-04-01T20:19:07.987Z,134.20
2018-04-01T20:21:35.555Z,136.27
2018-04-01T20:24:03.042Z,125.43
2018-04-01T20:26:30.543Z,142.57
2018-04-01T20:28:58.809Z,147.43
2018-04-01T20:31:26.801Z,131.43
2018-04-01T20:33:55.630Z,146.20
2018-04-01T20:36:23.131Z,134.43
2018-04-01T20:38:50.988Z,142.67
2018-04-01T20:41:22.177Z,119.43
2018-04-01T20:43:50.435Z,119.30
2018-04-01T20:46:18.748Z,139.90
2018-04-01T20:48:46.228Z,142.87
2018-04-01T20:51:13.753Z,133.97
2018-04-01T20:53:41.983Z,134.33
2018-04-01T20:56:10.651Z,122.27
2018-04-01T20:58:38.139Z,123.43
2018-04-01T21:01:05.707Z,124.20
2018-04-01T21:03:33.984Z,129.03
2018-04-01T21:06:01.758Z,135.60
2018-04-01T21:08:29.881Z,141.50
2018-04-01T21:10:57.539Z,126.43
2018-04-01T21:13:25.013Z,137.00
2018-04-01T21:15:52.744Z,135.77
2018-04-01T21:18:20.384Z,123.07
2018-04-01T21:20:48.666Z,133.77
2018-04-01T21:23:16.250Z,131.83
2018-04-01T21:25:44.280Z,117.30
2018-04-01T21:28:11.919Z,135.90
2018-04-01T21:30:39.500Z,143.33
2018-04-01T21:33:07.054Z,143.73
2018-04-01T21:35:36.700Z,127.50
2018-04-01T21:38:04.966Z,120.53
2018-04-01T21:40:33.328Z,122.23
2018-04-01T21:43:01.248Z,108.97
2018-04-01T21:45:28.850Z,120.60
2018-04-01T21:47:56.369Z,95.67
2018-04-01T21:50:23.886Z,105.67
2018-04-01T21:52:51.364Z,103.67
2018-04-01T21:55:18.854Z,94.90
2018-04-01T21:57:46.359Z,89.23
2018-04-01T22:00:13.864Z,89.50
2018-04-01T22:02:41.393Z,100.60
2018-04-01T22:05:08.826Z,94.70
2018-04-01T22:07:36.960Z,109.47
2018-04-01T22:10:04.502Z,103.23
2018-04-01T22:12:32.333Z,98.97
2018-04-01T22:14:59.823Z,98.13
2018-04-01T22:17:27.302Z,108.07
2018-04-01T22:19:54.786Z,122.83
2018-04-01T22:22:22.277Z,102.63
2018-04-01T22:24:50.572Z,94.10
2018-04-01T22:27:18.062Z,111.83
2018-04-01T22:29:45.526Z,110.00
2018-04-01T22:32:13.008Z,103.43
2018-04-01T22:34:40.492Z,115.43
2018-04-01T22:37:08.746Z,102.67
2018-04-01T22:39:36.290Z,119.03
2018-04-01T22:42:03.783Z,114.40
2018-04-01T22:44:32.030Z,117.30
2018-04-01T22:46:59.515Z,122.50
2018-04-01T22:49:27.752Z,116.97
2018-04-01T22:51:55.225Z,102.13
2018-04-01T22:54:22.709Z,101.87
2018-04-01T22:56:50.950Z,112.27
2018-04-01T22:59:18.417Z,113.47
2018-04-01T23:01:45.904Z,119.07
2018-04-01T23:04:13.409Z,109.70
2018-04-01T23:06:40.908Z,131.63
2018-04-01T23:09:08.402Z,122.77
2018-04-01T23:11:35.974Z,122.13
2018-04-01T23:14:03.471Z,128.30
2018-04-01T23:16:31.044Z,126.37
2018-04-01T23:18:58.516Z,125.93
2018-04-01T23:21:25.998Z,129.03
2018-04-01T23:23:53.663Z,124.97
2018-04-01T23:26:21.172Z,122.93
2018-04-01T23:28:48.982Z,115.20
2018-04-01T23:31:17.248Z,123.03
2018-04-01T23:33:44.731Z,108.43
2018-04-01T23:36:12.353Z,116.63
2018-04-01T23:38:39.926Z,100.97
2018-04-01T23:41:08.166Z,103.63
2018-04-01T23:43:36.142Z,111.23
2018-04-01T23:46:03.602Z,106.07
2018-04-01T23:48:31.491Z,114.80
2018-04-01T23:50:58.987Z,102.70
2018-04-01T23:53:26.516Z,108.13
2018-04-01T23:55:54.009Z,95.40
2018-04-01T23:58:21.495Z,102.93
